sensor_id;sensor_type;location;lat;lon;timestamp;temperature;humidity
28959;DHT22;16066;0.000;0.000;2023-05-07T00:01:18;20.00;54.20
28959;DHT22;16066;0.000;0.000;2023-05-07T00:03:44;20.00;54.30
28959;DHT22;16066;0.000;0.000;2023-05-07T00:06:09;20.00;54.30
28959;DHT22;16066;0.000;0.000;2023-05-07T00:08:38;20.00;54.20
28959;DHT22;16066;0.000;0.000;2023-05-07T00:11:03;20.00;54.50
28959;DHT22;16066;0.000;0.000;2023-05-07T00:13:29;20.00;54.50
28959;DHT22;16066;0.000;0.000;2023-05-07T00:16:03;19.90;54.40
28959;DHT22;16066;0.000;0.000;2023-05-07T00:18:29;19.90;54.50
28959;DHT22;16066;0.000;0.000;2023-05-07T00:20:55;19.90;54.50
28959;DHT22;16066;0.000;0.000;2023-05-07T00:23:21;19.90;54.40
28959;DHT22;16066;0.000;0.000;2023-05-07T00:25:47;20.00;54.50
28959;DHT22;16066;0.000;0.000;2023-05-07T00:28:19;19.90;54.40
28959;DHT22;16066;0.000;0.000;2023-05-07T00:30:44;19.90;54.40
28959;DHT22;16066;0.000;0.000;2023-05-07T00:33:10;20.00;54.60
28959;DHT22;16066;0.000;0.000;2023-05-07T00:35:36;19.90;54.40
28959;DHT22;16066;0.000;0.000;2023-05-07T00:38:01;20.00;54.60
28959;DHT22;16066;0.000;0.000;2023-05-07T00:40:27;19.90;54.60
28959;DHT22;16066;0.000;0.000;2023-05-07T00:42:52;19.90;54.40
28959;DHT22;16066;0.000;0.000;2023-05-07T00:45:22;19.90;54.40
28959;DHT22;16066;0.000;0.000;2023-05-07T00:47:48;19.90;54.60
28959;DHT22;16066;0.000;0.000;2023-05-07T00:50:14;19.90;54.60
28959;DHT22;16066;0.000;0.000;2023-05-07T00:52:39;19.90;54.60
28959;DHT22;16066;0.000;0.000;2023-05-07T00:55:07;19.90;54.60
28959;DHT22;16066;0.000;0.000;2023-05-07T00:57:36;19.90;55.20
28959;DHT22;16066;0.000;0.000;2023-05-07T01:00:03;19.90;54.60
28959;DHT22;16066;0.000;0.000;2023-05-07T01:02:29;19.90;54.50
28959;DHT22;16066;0.000;0.000;2023-05-07T01:04:55;19.90;54.70
28959;DHT22;16066;0.000;0.000;2023-05-07T01:07:22;19.90;54.60
28959;DHT22;16066;0.000;0.000;2023-05-07T01:09:48;19.90;54.70
28959;DHT22;16066;0.000;0.000;2023-05-07T01:12:14;19.90;54.50
28959;DHT22;16066;0.000;0.000;2023-05-07T01:14:40;19.90;54.60
28959;DHT22;16066;0.000;0.000;2023-05-07T01:17:06;19.90;54.60
28959;DHT22;16066;0.000;0.000;2023-05-07T01:19:33;19.90;54.50
28959;DHT22;16066;0.000;0.000;2023-05-07T01:22:09;19.90;54.50
28959;DHT22;16066;0.000;0.000;2023-05-07T01:24:40;19.80;54.50
28959;DHT22;16066;0.000;0.000;2023-05-07T01:27:06;19.80;54.50
28959;DHT22;16066;0.000;0.000;2023-05-07T01:29:31;19.80;55.20
28959;DHT22;16066;0.000;0.000;2023-05-07T01:31:59;19.80;54.30
28959;DHT22;16066;0.000;0.000;2023-05-07T01:34:26;19.80;54.50
28959;DHT22;16066;0.000;0.000;2023-05-07T01:36:54;19.90;54.60
28959;DHT22;16066;0.000;0.000;2023-05-07T01:39:22;19.90;54.70
28959;DHT22;16066;0.000;0.000;2023-05-07T01:41:49;19.90;54.50
28959;DHT22;16066;0.000;0.000;2023-05-07T01:44:15;19.80;54.50
28959;DHT22;16066;0.000;0.000;2023-05-07T01:46:41;19.80;54.60
28959;DHT22;16066;0.000;0.000;2023-05-07T01:49:07;19.80;54.60
28959;DHT22;16066;0.000;0.000;2023-05-07T01:51:33;19.80;54.40
28959;DHT22;16066;0.000;0.000;2023-05-07T01:53:59;19.80;54.40
28959;DHT22;16066;0.000;0.000;2023-05-07T01:56:25;19.80;54.50
28959;DHT22;16066;0.000;0.000;2023-05-07T01:58:51;19.80;54.50
28959;DHT22;16066;0.000;0.000;2023-05-07T02:01:17;19.80;54.50
28959;DHT22;16066;0.000;0.000;2023-05-07T02:03:43;19.80;54.40
28959;DHT22;16066;0.000;0.000;2023-05-07T02:06:08;19.80;54.20
28959;DHT22;16066;0.000;0.000;2023-05-07T02:08:34;19.80;54.40
28959;DHT22;16066;0.000;0.000;2023-05-07T02:11:00;19.80;54.30
28959;DHT22;16066;0.000;0.000;2023-05-07T02:13:28;19.80;54.40
28959;DHT22;16066;0.000;0.000;2023-05-07T02:15:54;19.80;54.40
28959;DHT22;16066;0.000;0.000;2023-05-07T02:18:20;19.80;54.30
28959;DHT22;16066;0.000;0.000;2023-05-07T02:20:45;19.80;54.20
28959;DHT22;16066;0.000;0.000;2023-05-07T02:23:11;19.70;54.10
28959;DHT22;16066;0.000;0.000;2023-05-07T02:25:36;19.80;54.20
28959;DHT22;16066;0.000;0.000;2023-05-07T02:28:02;19.70;54.20
28959;DHT22;16066;0.000;0.000;2023-05-07T02:30:28;19.70;54.20
28959;DHT22;16066;0.000;0.000;2023-05-07T02:32:53;19.70;54.40
28959;DHT22;16066;0.000;0.000;2023-05-07T02:35:19;19.70;54.30
28959;DHT22;16066;0.000;0.000;2023-05-07T02:37:45;19.70;54.30
28959;DHT22;16066;0.000;0.000;2023-05-07T02:40:11;19.70;54.10
28959;DHT22;16066;0.000;0.000;2023-05-07T02:42:36;19.70;54.00
28959;DHT22;16066;0.000;0.000;2023-05-07T02:45:02;19.70;54.10
28959;DHT22;16066;0.000;0.000;2023-05-07T02:47:28;19.70;54.10
28959;DHT22;16066;0.000;0.000;2023-05-07T02:49:54;19.60;54.10
28959;DHT22;16066;0.000;0.000;2023-05-07T02:52:20;19.70;54.10
28959;DHT22;16066;0.000;0.000;2023-05-07T02:54:46;19.70;53.90
28959;DHT22;16066;0.000;0.000;2023-05-07T02:57:11;19.70;53.80
28959;DHT22;16066;0.000;0.000;2023-05-07T02:59:37;19.60;53.70
28959;DHT22;16066;0.000;0.000;2023-05-07T03:02:02;19.60;53.70
28959;DHT22;16066;0.000;0.000;2023-05-07T03:04:28;19.60;53.80
28959;DHT22;16066;0.000;0.000;2023-05-07T03:06:53;19.60;53.60
28959;DHT22;16066;0.000;0.000;2023-05-07T03:09:20;19.60;53.60
28959;DHT22;16066;0.000;0.000;2023-05-07T03:11:45;19.60;53.70
28959;DHT22;16066;0.000;0.000;2023-05-07T03:14:11;19.60;53.70
28959;DHT22;16066;0.000;0.000;2023-05-07T03:16:38;19.60;53.90
28959;DHT22;16066;0.000;0.000;2023-05-07T03:19:03;19.60;53.70
28959;DHT22;16066;0.000;0.000;2023-05-07T03:21:29;19.60;53.80
28959;DHT22;16066;0.000;0.000;2023-05-07T03:23:55;19.60;53.70
28959;DHT22;16066;0.000;0.000;2023-05-07T03:26:21;19.60;53.70
28959;DHT22;16066;0.000;0.000;2023-05-07T03:28:47;19.50;53.60
28959;DHT22;16066;0.000;0.000;2023-05-07T03:31:12;19.50;53.70
28959;DHT22;16066;0.000;0.000;2023-05-07T03:33:55;19.50;53.60
28959;DHT22;16066;0.000;0.000;2023-05-07T03:36:22;19.50;53.60
28959;DHT22;16066;0.000;0.000;2023-05-07T03:38:48;19.50;53.60
28959;DHT22;16066;0.000;0.000;2023-05-07T03:41:14;19.50;53.60
28959;DHT22;16066;0.000;0.000;2023-05-07T03:43:40;19.50;53.60
28959;DHT22;16066;0.000;0.000;2023-05-07T03:46:05;19.50;53.80
28959;DHT22;16066;0.000;0.000;2023-05-07T03:48:31;19.50;53.70
28959;DHT22;16066;0.000;0.000;2023-05-07T03:50:57;19.40;53.70
28959;DHT22;16066;0.000;0.000;2023-05-07T03:53:23;19.40;53.70
28959;DHT22;16066;0.000;0.000;2023-05-07T03:55:48;19.40;53.80
28959;DHT22;16066;0.000;0.000;2023-05-07T03:58:15;19.40;53.90
28959;DHT22;16066;0.000;0.000;2023-05-07T04:00:40;19.40;53.70
28959;DHT22;16066;0.000;0.000;2023-05-07T04:03:06;19.40;53.90
28959;DHT22;16066;0.000;0.000;2023-05-07T04:05:32;19.40;54.50
28959;DHT22;16066;0.000;0.000;2023-05-07T04:08:01;19.40;54.00
28959;DHT22;16066;0.000;0.000;2023-05-07T04:10:28;19.40;53.80
28959;DHT22;16066;0.000;0.000;2023-05-07T04:12:54;19.40;53.60
28959;DHT22;16066;0.000;0.000;2023-05-07T04:15:19;19.40;53.60
28959;DHT22;16066;0.000;0.000;2023-05-07T04:17:45;19.40;53.70
28959;DHT22;16066;0.000;0.000;2023-05-07T04:20:14;19.40;53.60
28959;DHT22;16066;0.000;0.000;2023-05-07T04:22:40;19.40;53.70
28959;DHT22;16066;0.000;0.000;2023-05-07T04:25:06;19.40;53.60
28959;DHT22;16066;0.000;0.000;2023-05-07T04:27:33;19.40;53.70
28959;DHT22;16066;0.000;0.000;2023-05-07T04:29:58;19.40;53.70
28959;DHT22;16066;0.000;0.000;2023-05-07T04:32:26;19.40;53.70
28959;DHT22;16066;0.000;0.000;2023-05-07T04:34:52;19.40;53.70
28959;DHT22;16066;0.000;0.000;2023-05-07T04:37:17;19.40;53.60
28959;DHT22;16066;0.000;0.000;2023-05-07T04:39:43;19.40;53.70
28959;DHT22;16066;0.000;0.000;2023-05-07T04:42:08;19.40;53.60
28959;DHT22;16066;0.000;0.000;2023-05-07T04:44:35;19.30;53.60
28959;DHT22;16066;0.000;0.000;2023-05-07T04:47:02;19.30;53.60
28959;DHT22;16066;0.000;0.000;2023-05-07T04:49:27;19.40;53.80
28959;DHT22;16066;0.000;0.000;2023-05-07T04:51:53;19.40;53.70
28959;DHT22;16066;0.000;0.000;2023-05-07T04:54:18;19.40;53.80
28959;DHT22;16066;0.000;0.000;2023-05-07T04:56:44;19.40;53.80
28959;DHT22;16066;0.000;0.000;2023-05-07T04:59:09;19.30;53.70
28959;DHT22;16066;0.000;0.000;2023-05-07T05:01:35;19.40;53.80
28959;DHT22;16066;0.000;0.000;2023-05-07T05:04:00;19.40;53.80
28959;DHT22;16066;0.000;0.000;2023-05-07T05:06:26;19.40;53.70
28959;DHT22;16066;0.000;0.000;2023-05-07T05:08:52;19.40;53.60
28959;DHT22;16066;0.000;0.000;2023-05-07T05:11:17;19.40;53.60
28959;DHT22;16066;0.000;0.000;2023-05-07T05:13:43;19.40;53.60
28959;DHT22;16066;0.000;0.000;2023-05-07T05:16:08;19.40;53.50
28959;DHT22;16066;0.000;0.000;2023-05-07T05:18:34;19.50;53.60
28959;DHT22;16066;0.000;0.000;2023-05-07T05:21:00;19.50;53.60
28959;DHT22;16066;0.000;0.000;2023-05-07T05:23:25;19.50;53.60
28959;DHT22;16066;0.000;0.000;2023-05-07T05:25:55;19.50;53.70
28959;DHT22;16066;0.000;0.000;2023-05-07T05:28:21;19.50;53.50
28959;DHT22;16066;0.000;0.000;2023-05-07T05:30:47;19.50;53.40
28959;DHT22;16066;0.000;0.000;2023-05-07T05:33:12;19.60;53.30
28959;DHT22;16066;0.000;0.000;2023-05-07T05:35:38;19.60;53.20
28959;DHT22;16066;0.000;0.000;2023-05-07T05:38:03;19.60;53.20
28959;DHT22;16066;0.000;0.000;2023-05-07T05:40:29;19.60;53.20
28959;DHT22;16066;0.000;0.000;2023-05-07T05:42:55;19.60;53.10
28959;DHT22;16066;0.000;0.000;2023-05-07T05:45:20;19.60;53.10
28959;DHT22;16066;0.000;0.000;2023-05-07T05:47:46;19.70;53.10
28959;DHT22;16066;0.000;0.000;2023-05-07T05:50:11;19.70;53.00
28959;DHT22;16066;0.000;0.000;2023-05-07T05:52:37;19.70;52.70
28959;DHT22;16066;0.000;0.000;2023-05-07T05:55:02;19.70;52.90
28959;DHT22;16066;0.000;0.000;2023-05-07T05:57:28;19.70;52.60
28959;DHT22;16066;0.000;0.000;2023-05-07T05:59:53;19.70;52.80
28959;DHT22;16066;0.000;0.000;2023-05-07T06:02:20;19.80;53.00
28959;DHT22;16066;0.000;0.000;2023-05-07T06:04:45;19.80;52.60
28959;DHT22;16066;0.000;0.000;2023-05-07T06:07:11;19.80;52.40
28959;DHT22;16066;0.000;0.000;2023-05-07T06:09:36;19.90;52.90
28959;DHT22;16066;0.000;0.000;2023-05-07T06:12:02;19.90;52.80
28959;DHT22;16066;0.000;0.000;2023-05-07T06:14:28;19.90;52.40
28959;DHT22;16066;0.000;0.000;2023-05-07T06:16:53;19.90;52.40
28959;DHT22;16066;0.000;0.000;2023-05-07T06:19:19;19.90;52.60
28959;DHT22;16066;0.000;0.000;2023-05-07T06:21:48;19.90;52.60
28959;DHT22;16066;0.000;0.000;2023-05-07T06:24:14;20.00;52.50
28959;DHT22;16066;0.000;0.000;2023-05-07T06:26:39;20.00;52.30
28959;DHT22;16066;0.000;0.000;2023-05-07T06:29:06;20.00;52.30
28959;DHT22;16066;0.000;0.000;2023-05-07T06:31:31;20.00;52.50
28959;DHT22;16066;0.000;0.000;2023-05-07T06:33:57;20.10;52.40
28959;DHT22;16066;0.000;0.000;2023-05-07T06:36:24;20.10;52.40
28959;DHT22;16066;0.000;0.000;2023-05-07T06:38:49;20.10;52.30
28959;DHT22;16066;0.000;0.000;2023-05-07T06:41:15;20.10;52.40
28959;DHT22;16066;0.000;0.000;2023-05-07T06:43:40;20.10;52.50
28959;DHT22;16066;0.000;0.000;2023-05-07T06:46:06;20.10;52.10
28959;DHT22;16066;0.000;0.000;2023-05-07T06:48:31;20.20;52.10
28959;DHT22;16066;0.000;0.000;2023-05-07T06:50:57;20.20;52.20
28959;DHT22;16066;0.000;0.000;2023-05-07T06:53:23;20.20;52.10
28959;DHT22;16066;0.000;0.000;2023-05-07T06:55:49;20.30;52.20
28959;DHT22;16066;0.000;0.000;2023-05-07T06:58:14;20.30;52.00
28959;DHT22;16066;0.000;0.000;2023-05-07T07:00:40;20.30;52.20
28959;DHT22;16066;0.000;0.000;2023-05-07T07:03:06;20.30;52.00
28959;DHT22;16066;0.000;0.000;2023-05-07T07:05:32;20.40;51.70
28959;DHT22;16066;0.000;0.000;2023-05-07T07:07:57;20.40;51.60
28959;DHT22;16066;0.000;0.000;2023-05-07T07:10:23;20.40;51.50
28959;DHT22;16066;0.000;0.000;2023-05-07T07:12:49;20.50;51.60
28959;DHT22;16066;0.000;0.000;2023-05-07T07:15:15;20.50;51.50
28959;DHT22;16066;0.000;0.000;2023-05-07T07:17:41;20.50;52.00
28959;DHT22;16066;0.000;0.000;2023-05-07T07:20:07;20.50;51.20
28959;DHT22;16066;0.000;0.000;2023-05-07T07:22:33;20.60;51.30
28959;DHT22;16066;0.000;0.000;2023-05-07T07:24:58;20.60;51.50
28959;DHT22;16066;0.000;0.000;2023-05-07T07:27:24;20.60;51.50
28959;DHT22;16066;0.000;0.000;2023-05-07T07:29:49;20.60;51.80
28959;DHT22;16066;0.000;0.000;2023-05-07T07:32:15;20.70;51.90
28959;DHT22;16066;0.000;0.000;2023-05-07T07:34:41;20.70;51.80
28959;DHT22;16066;0.000;0.000;2023-05-07T07:37:06;20.80;51.80
28959;DHT22;16066;0.000;0.000;2023-05-07T07:39:32;20.80;51.70
28959;DHT22;16066;0.000;0.000;2023-05-07T07:41:58;20.80;51.50
28959;DHT22;16066;0.000;0.000;2023-05-07T07:44:23;20.80;52.40
28959;DHT22;16066;0.000;0.000;2023-05-07T07:46:49;20.90;51.70
28959;DHT22;16066;0.000;0.000;2023-05-07T07:49:16;20.90;51.40
28959;DHT22;16066;0.000;0.000;2023-05-07T07:51:41;20.90;51.30
28959;DHT22;16066;0.000;0.000;2023-05-07T07:54:07;20.90;51.30
28959;DHT22;16066;0.000;0.000;2023-05-07T07:56:33;21.00;51.30
28959;DHT22;16066;0.000;0.000;2023-05-07T07:59:01;21.00;51.30
28959;DHT22;16066;0.000;0.000;2023-05-07T08:01:29;21.00;51.00
28959;DHT22;16066;0.000;0.000;2023-05-07T08:03:55;21.00;51.10
28959;DHT22;16066;0.000;0.000;2023-05-07T08:06:20;21.00;51.10
28959;DHT22;16066;0.000;0.000;2023-05-07T08:08:46;21.10;51.00
28959;DHT22;16066;0.000;0.000;2023-05-07T08:11:12;21.00;51.00
28959;DHT22;16066;0.000;0.000;2023-05-07T08:13:38;21.00;51.00
28959;DHT22;16066;0.000;0.000;2023-05-07T08:16:04;21.00;51.10
28959;DHT22;16066;0.000;0.000;2023-05-07T08:18:30;21.00;51.00
28959;DHT22;16066;0.000;0.000;2023-05-07T08:20:55;21.00;51.10
28959;DHT22;16066;0.000;0.000;2023-05-07T08:23:21;21.00;51.00
28959;DHT22;16066;0.000;0.000;2023-05-07T08:25:48;21.10;51.00
28959;DHT22;16066;0.000;0.000;2023-05-07T08:28:13;21.10;50.90
28959;DHT22;16066;0.000;0.000;2023-05-07T08:30:39;21.10;51.00
28959;DHT22;16066;0.000;0.000;2023-05-07T08:33:04;21.10;50.80
28959;DHT22;16066;0.000;0.000;2023-05-07T08:35:30;21.10;50.60
28959;DHT22;16066;0.000;0.000;2023-05-07T08:37:55;21.20;50.60
28959;DHT22;16066;0.000;0.000;2023-05-07T08:40:25;21.20;50.60
28959;DHT22;16066;0.000;0.000;2023-05-07T08:42:52;21.20;50.60
28959;DHT22;16066;0.000;0.000;2023-05-07T08:45:19;21.20;50.60
28959;DHT22;16066;0.000;0.000;2023-05-07T08:47:52;21.20;50.70
28959;DHT22;16066;0.000;0.000;2023-05-07T08:50:20;21.20;50.60
28959;DHT22;16066;0.000;0.000;2023-05-07T08:52:46;21.20;50.50
28959;DHT22;16066;0.000;0.000;2023-05-07T08:55:13;21.30;50.60
28959;DHT22;16066;0.000;0.000;2023-05-07T08:57:38;21.30;50.60
28959;DHT22;16066;0.000;0.000;2023-05-07T09:00:04;21.30;50.40
28959;DHT22;16066;0.000;0.000;2023-05-07T09:02:32;21.30;50.80
28959;DHT22;16066;0.000;0.000;2023-05-07T09:04:58;21.30;50.30
28959;DHT22;16066;0.000;0.000;2023-05-07T09:07:25;21.30;50.20
28959;DHT22;16066;0.000;0.000;2023-05-07T09:09:51;21.30;50.20
28959;DHT22;16066;0.000;0.000;2023-05-07T09:12:18;21.30;50.10
28959;DHT22;16066;0.000;0.000;2023-05-07T09:14:45;21.30;50.20
28959;DHT22;16066;0.000;0.000;2023-05-07T09:17:11;21.40;50.40
28959;DHT22;16066;0.000;0.000;2023-05-07T09:19:36;21.40;50.40
28959;DHT22;16066;0.000;0.000;2023-05-07T09:22:04;21.40;50.20
28959;DHT22;16066;0.000;0.000;2023-05-07T09:24:30;21.40;50.00
28959;DHT22;16066;0.000;0.000;2023-05-07T09:27:00;21.50;50.10
28959;DHT22;16066;0.000;0.000;2023-05-07T09:29:26;21.40;50.10
28959;DHT22;16066;0.000;0.000;2023-05-07T09:31:54;21.50;50.10
28959;DHT22;16066;0.000;0.000;2023-05-07T09:34:20;21.50;50.00
28959;DHT22;16066;0.000;0.000;2023-05-07T09:36:45;21.50;49.90
28959;DHT22;16066;0.000;0.000;2023-05-07T09:39:11;21.50;49.90
28959;DHT22;16066;0.000;0.000;2023-05-07T09:41:48;21.50;49.80
28959;DHT22;16066;0.000;0.000;2023-05-07T09:44:20;21.50;49.90
28959;DHT22;16066;0.000;0.000;2023-05-07T09:46:47;21.50;49.80
28959;DHT22;16066;0.000;0.000;2023-05-07T09:49:21;21.50;50.70
28959;DHT22;16066;0.000;0.000;2023-05-07T09:51:51;21.60;49.70
28959;DHT22;16066;0.000;0.000;2023-05-07T09:54:18;21.60;49.60
28959;DHT22;16066;0.000;0.000;2023-05-07T09:56:52;21.60;49.50
28959;DHT22;16066;0.000;0.000;2023-05-07T09:59:18;21.60;49.40
28959;DHT22;16066;0.000;0.000;2023-05-07T10:01:44;21.60;49.30
28959;DHT22;16066;0.000;0.000;2023-05-07T10:04:10;21.60;49.20
28959;DHT22;16066;0.000;0.000;2023-05-07T10:06:37;21.60;49.30
28959;DHT22;16066;0.000;0.000;2023-05-07T10:09:04;21.60;49.10
28959;DHT22;16066;0.000;0.000;2023-05-07T10:11:33;21.60;49.10
28959;DHT22;16066;0.000;0.000;2023-05-07T10:14:00;21.60;49.10
28959;DHT22;16066;0.000;0.000;2023-05-07T10:16:33;21.60;49.10
28959;DHT22;16066;0.000;0.000;2023-05-07T10:19:03;21.60;49.00
28959;DHT22;16066;0.000;0.000;2023-05-07T10:21:29;21.60;49.10
28959;DHT22;16066;0.000;0.000;2023-05-07T10:24:01;21.60;49.00
28959;DHT22;16066;0.000;0.000;2023-05-07T10:26:32;21.60;48.90
28959;DHT22;16066;0.000;0.000;2023-05-07T10:29:14;21.60;48.90
28959;DHT22;16066;0.000;0.000;2023-05-07T10:34:16;21.70;48.60
28959;DHT22;16066;0.000;0.000;2023-05-07T10:36:43;21.70;48.60
28959;DHT22;16066;0.000;0.000;2023-05-07T10:39:10;21.70;49.20
28959;DHT22;16066;0.000;0.000;2023-05-07T10:41:35;21.70;49.50
28959;DHT22;16066;0.000;0.000;2023-05-07T10:44:02;21.70;49.30
28959;DHT22;16066;0.000;0.000;2023-05-07T10:46:27;21.70;49.00
28959;DHT22;16066;0.000;0.000;2023-05-07T10:51:34;21.70;48.80
28959;DHT22;16066;0.000;0.000;2023-05-07T10:56:35;21.80;48.30
28959;DHT22;16066;0.000;0.000;2023-05-07T11:01:53;21.90;47.70
28959;DHT22;16066;0.000;0.000;2023-05-07T11:04:20;21.90;47.70
28959;DHT22;16066;0.000;0.000;2023-05-07T11:09:53;21.90;47.80
28959;DHT22;16066;0.000;0.000;2023-05-07T11:15:09;21.80;48.20
28959;DHT22;16066;0.000;0.000;2023-05-07T11:17:52;21.80;48.40
28959;DHT22;16066;0.000;0.000;2023-05-07T11:20:18;21.80;48.60
28959;DHT22;16066;0.000;0.000;2023-05-07T11:22:44;21.80;49.10
28959;DHT22;16066;0.000;0.000;2023-05-07T11:25:10;21.80;48.50
28959;DHT22;16066;0.000;0.000;2023-05-07T11:27:36;21.80;48.50
28959;DHT22;16066;0.000;0.000;2023-05-07T11:30:02;21.80;48.80
28959;DHT22;16066;0.000;0.000;2023-05-07T11:32:29;21.80;49.50
28959;DHT22;16066;0.000;0.000;2023-05-07T11:34:56;21.80;49.70
28959;DHT22;16066;0.000;0.000;2023-05-07T11:37:23;21.80;49.70
28959;DHT22;16066;0.000;0.000;2023-05-07T11:39:49;21.80;49.90
28959;DHT22;16066;0.000;0.000;2023-05-07T11:42:29;21.80;50.00
28959;DHT22;16066;0.000;0.000;2023-05-07T11:44:55;21.80;50.40
28959;DHT22;16066;0.000;0.000;2023-05-07T11:47:21;21.80;50.50
28959;DHT22;16066;0.000;0.000;2023-05-07T11:49:48;21.70;50.50
28959;DHT22;16066;0.000;0.000;2023-05-07T11:52:14;21.70;50.40
28959;DHT22;16066;0.000;0.000;2023-05-07T11:54:40;21.70;50.30
28959;DHT22;16066;0.000;0.000;2023-05-07T11:57:06;21.70;50.20
28959;DHT22;16066;0.000;0.000;2023-05-07T11:59:39;21.70;50.20
28959;DHT22;16066;0.000;0.000;2023-05-07T12:02:06;21.70;50.30
28959;DHT22;16066;0.000;0.000;2023-05-07T12:04:32;21.70;50.60
28959;DHT22;16066;0.000;0.000;2023-05-07T12:06:57;21.70;50.50
28959;DHT22;16066;0.000;0.000;2023-05-07T12:09:23;21.70;50.80
28959;DHT22;16066;0.000;0.000;2023-05-07T12:11:49;21.70;50.60
28959;DHT22;16066;0.000;0.000;2023-05-07T12:14:14;21.70;50.70
28959;DHT22;16066;0.000;0.000;2023-05-07T12:16:43;21.70;50.60
28959;DHT22;16066;0.000;0.000;2023-05-07T12:19:11;21.70;50.60
28959;DHT22;16066;0.000;0.000;2023-05-07T12:21:38;21.70;50.50
28959;DHT22;16066;0.000;0.000;2023-05-07T12:24:05;21.70;50.50
28959;DHT22;16066;0.000;0.000;2023-05-07T12:26:30;21.70;50.60
28959;DHT22;16066;0.000;0.000;2023-05-07T12:28:57;21.70;50.50
28959;DHT22;16066;0.000;0.000;2023-05-07T12:31:25;21.70;50.50
28959;DHT22;16066;0.000;0.000;2023-05-07T12:33:51;21.70;50.80
28959;DHT22;16066;0.000;0.000;2023-05-07T12:36:16;21.70;50.80
28959;DHT22;16066;0.000;0.000;2023-05-07T12:38:42;21.70;51.00
28959;DHT22;16066;0.000;0.000;2023-05-07T12:41:09;21.70;51.20
28959;DHT22;16066;0.000;0.000;2023-05-07T12:43:35;21.70;51.60
28959;DHT22;16066;0.000;0.000;2023-05-07T12:46:06;21.70;52.10
28959;DHT22;16066;0.000;0.000;2023-05-07T12:48:31;21.70;52.80
28959;DHT22;16066;0.000;0.000;2023-05-07T12:50:58;21.60;52.80
28959;DHT22;16066;0.000;0.000;2023-05-07T12:53:26;21.70;53.20
28959;DHT22;16066;0.000;0.000;2023-05-07T12:55:54;21.70;53.40
28959;DHT22;16066;0.000;0.000;2023-05-07T12:58:31;21.60;53.40
28959;DHT22;16066;0.000;0.000;2023-05-07T13:01:00;21.60;54.20
28959;DHT22;16066;0.000;0.000;2023-05-07T13:03:33;21.60;53.80
28959;DHT22;16066;0.000;0.000;2023-05-07T13:06:04;21.70;53.90
28959;DHT22;16066;0.000;0.000;2023-05-07T13:08:32;21.70;54.10
28959;DHT22;16066;0.000;0.000;2023-05-07T13:11:02;21.60;54.30
28959;DHT22;16066;0.000;0.000;2023-05-07T13:13:30;21.60;54.20
28959;DHT22;16066;0.000;0.000;2023-05-07T13:15:55;21.60;54.00
28959;DHT22;16066;0.000;0.000;2023-05-07T13:18:21;21.60;54.20
28959;DHT22;16066;0.000;0.000;2023-05-07T13:20:46;21.60;54.00
28959;DHT22;16066;0.000;0.000;2023-05-07T13:23:12;21.60;53.80
28959;DHT22;16066;0.000;0.000;2023-05-07T13:25:37;21.60;53.20
28959;DHT22;16066;0.000;0.000;2023-05-07T13:28:03;21.60;52.50
28959;DHT22;16066;0.000;0.000;2023-05-07T13:30:29;21.60;52.20
28959;DHT22;16066;0.000;0.000;2023-05-07T13:32:55;21.60;51.80
28959;DHT22;16066;0.000;0.000;2023-05-07T13:35:21;21.60;51.50
28959;DHT22;16066;0.000;0.000;2023-05-07T13:37:47;21.60;51.20
28959;DHT22;16066;0.000;0.000;2023-05-07T13:40:14;21.60;51.10
28959;DHT22;16066;0.000;0.000;2023-05-07T13:42:40;21.60;51.10
28959;DHT22;16066;0.000;0.000;2023-05-07T13:45:07;21.60;50.80
28959;DHT22;16066;0.000;0.000;2023-05-07T13:47:32;21.60;50.70
28959;DHT22;16066;0.000;0.000;2023-05-07T13:49:58;21.60;50.50
28959;DHT22;16066;0.000;0.000;2023-05-07T13:52:23;21.60;50.40
28959;DHT22;16066;0.000;0.000;2023-05-07T13:54:49;21.60;50.40
28959;DHT22;16066;0.000;0.000;2023-05-07T13:57:14;21.60;50.50
28959;DHT22;16066;0.000;0.000;2023-05-07T13:59:41;21.60;50.50
28959;DHT22;16066;0.000;0.000;2023-05-07T14:02:06;21.60;50.50
28959;DHT22;16066;0.000;0.000;2023-05-07T14:04:32;21.60;50.60
28959;DHT22;16066;0.000;0.000;2023-05-07T14:06:57;21.60;50.50
28959;DHT22;16066;0.000;0.000;2023-05-07T14:09:23;21.60;50.50
28959;DHT22;16066;0.000;0.000;2023-05-07T14:11:48;21.60;50.60
28959;DHT22;16066;0.000;0.000;2023-05-07T14:14:19;21.60;50.70
28959;DHT22;16066;0.000;0.000;2023-05-07T14:16:45;21.60;50.70
28959;DHT22;16066;0.000;0.000;2023-05-07T14:19:13;21.60;50.70
28959;DHT22;16066;0.000;0.000;2023-05-07T14:21:39;21.70;50.80
28959;DHT22;16066;0.000;0.000;2023-05-07T14:24:06;21.60;50.70
28959;DHT22;16066;0.000;0.000;2023-05-07T14:26:33;21.70;51.10
28959;DHT22;16066;0.000;0.000;2023-05-07T14:28:58;21.70;50.80
28959;DHT22;16066;0.000;0.000;2023-05-07T14:31:24;21.70;50.90
28959;DHT22;16066;0.000;0.000;2023-05-07T14:33:50;21.70;50.90
28959;DHT22;16066;0.000;0.000;2023-05-07T14:36:16;21.70;51.00
28959;DHT22;16066;0.000;0.000;2023-05-07T14:38:42;21.70;51.10
28959;DHT22;16066;0.000;0.000;2023-05-07T14:41:08;21.70;51.00
28959;DHT22;16066;0.000;0.000;2023-05-07T14:43:33;21.70;51.30
28959;DHT22;16066;0.000;0.000;2023-05-07T14:45:59;21.70;51.10
28959;DHT22;16066;0.000;0.000;2023-05-07T14:48:24;21.70;51.60
28959;DHT22;16066;0.000;0.000;2023-05-07T14:50:50;21.70;51.50
28959;DHT22;16066;0.000;0.000;2023-05-07T14:53:16;21.70;52.50
28959;DHT22;16066;0.000;0.000;2023-05-07T14:55:41;21.70;51.40
28959;DHT22;16066;0.000;0.000;2023-05-07T14:58:07;21.70;51.50
28959;DHT22;16066;0.000;0.000;2023-05-07T15:00:33;21.70;51.70
28959;DHT22;16066;0.000;0.000;2023-05-07T15:03:09;21.70;53.80
28959;DHT22;16066;0.000;0.000;2023-05-07T15:05:35;21.70;54.10
28959;DHT22;16066;0.000;0.000;2023-05-07T15:08:01;21.70;54.90
28959;DHT22;16066;0.000;0.000;2023-05-07T15:10:27;21.70;55.30
28959;DHT22;16066;0.000;0.000;2023-05-07T15:12:53;21.60;55.60
28959;DHT22;16066;0.000;0.000;2023-05-07T15:15:19;21.60;55.40
28959;DHT22;16066;0.000;0.000;2023-05-07T15:17:44;21.60;55.90
28959;DHT22;16066;0.000;0.000;2023-05-07T15:20:10;21.60;55.20
28959;DHT22;16066;0.000;0.000;2023-05-07T15:22:35;21.60;55.60
28959;DHT22;16066;0.000;0.000;2023-05-07T15:25:03;21.70;55.90
28959;DHT22;16066;0.000;0.000;2023-05-07T15:27:29;21.70;56.20
28959;DHT22;16066;0.000;0.000;2023-05-07T15:29:56;21.60;56.20
28959;DHT22;16066;0.000;0.000;2023-05-07T15:32:21;21.60;56.60
28959;DHT22;16066;0.000;0.000;2023-05-07T15:34:47;21.60;56.20
28959;DHT22;16066;0.000;0.000;2023-05-07T15:37:12;21.60;56.50
28959;DHT22;16066;0.000;0.000;2023-05-07T15:39:38;21.70;56.30
28959;DHT22;16066;0.000;0.000;2023-05-07T15:42:04;21.60;56.90
28959;DHT22;16066;0.000;0.000;2023-05-07T15:44:30;21.60;56.50
28959;DHT22;16066;0.000;0.000;2023-05-07T15:46:58;21.60;56.60
28959;DHT22;16066;0.000;0.000;2023-05-07T15:49:24;21.70;56.80
28959;DHT22;16066;0.000;0.000;2023-05-07T15:51:50;21.70;56.40
28959;DHT22;16066;0.000;0.000;2023-05-07T15:54:16;21.60;56.50
28959;DHT22;16066;0.000;0.000;2023-05-07T15:56:45;21.70;56.70